MHR - Sacramento Mather

Pirep is a free, collaborative database of all public and private airports located within the United States. All pilots are welcome to contribute, edit, and improve any airport they have local knowledge about, no registration required.
Uploaded photos will be licensed under a CC BY-SA 4.0 license. Please only upload photos you have the rights to use.
Tags
Public
METAR / TAF
Events
Flying Clubs
Edit Tags
Food
Camping
Lodging
Car Rental
Bicycles
Swimming
Golfing
Fishing
Hot Springs
Museum
Airpark
Upcoming Events
*
*
*

Where exactly on/near the airport is this event taking place?

Is there a webpage with more information for this event?

Who should be contacted for more information?

What is this event all about?

Repeat every
Description
Transient Parking
Fuel Location
Landing & Tie-down Fees
Crew Car Availability
Flying Clubs
Last updated: 2024-02-25 21:54:28 PST
WiFi Access
Airport Statistics
Location: Sacramento, CA
Elevation: 98ft
Sectional: San Francisco
Activation date: Jul 1942
Fuel: 100LL, A (prices)
Runway 04R/22L: 11,301ft
Runway 04L/22R: 6,081ft
Runway H2: 100ft
Runway H1: 30ft
Access: Open to the public
Current Weather — VFR
  • Weather data is strictly informational and not for flight planning purposes.
  • METAR
    2024-05-30 02:15:00 PDT
    Ceiling Wind Temperature Dewpoint Weather Visbility
    Sky clear 150° @ 3kt 53°F 44°F N/A 10SM
    Raw: KMHR 300915Z AUTO 15003KT 10SM CLR 12/07 A2992 RMK A01
  • TAF
    2024-05-29 23:00:00 PDT – 2024-05-30 05:00:00 PDT
    Ceiling Wind Weather Visbility
    Sky clear 300° @ 6kt N/A 6SM
    Clouds: @ ft
    Raw: KMHR 300525Z 3006/3106 30006KT P6SM SKC FM301200 33007KT P6SM SKC
  • TAF
    2024-05-30 05:00:00 PDT – 2024-05-30 23:00:00 PDT
    Ceiling Wind Weather Visbility
    Sky clear 330° @ 7kt N/A 6SM
    Clouds: @ ft
    Raw: KMHR 300525Z 3006/3106 30006KT P6SM SKC FM301200 33007KT P6SM SKC
Click/tap to add an annotation marker to the map
Airport Webcams
No webcams added yet.
Direct links to live image URLs will be displayed inline on this page. URLs to separate webpages will be linked to.
URL:
Direct links to live image URLs will be displayed inline on this page. URLs to separate webpages will be linked to.
URL:
Remarks
  • No objection
  • Ry 22l calm wind ry.
  • Be alert for large transport acft tkofs & lndgs and high performance military t-38 jets.
  • Avoid noise sensitive residential areas north/east of ry 22l ils final apch course. turbojet nighttime noise abatement arrival and departure procedures in effect 2200-0700 daily.
  • Pilot information on noise abatement (916) 874-0359.
Comments
Leave a comment What was your experience like at this airport?